createdAt,value
2018-09-05T00:00:57.024Z,96.70
2018-09-05T00:03:25.929Z,96.70
2018-09-05T00:05:54.806Z,96.80
2018-09-05T00:08:23.728Z,96.80
2018-09-05T00:10:52.674Z,96.70
2018-09-05T00:13:21.566Z,96.70
2018-09-05T00:15:50.407Z,96.70
2018-09-05T00:18:19.288Z,96.80
2018-09-05T00:20:48.127Z,96.90
2018-09-05T00:23:17.086Z,96.80
2018-09-05T00:25:45.901Z,96.80
2018-09-05T00:28:14.842Z,96.90
2018-09-05T00:30:43.785Z,96.90
2018-09-05T00:33:12.682Z,96.90
2018-09-05T00:35:41.624Z,96.90
2018-09-05T00:38:10.484Z,97.00
2018-09-05T00:40:39.365Z,97.00
2018-09-05T00:43:08.318Z,97.10
2018-09-05T00:45:37.236Z,97.30
2018-09-05T00:48:06.136Z,97.10
2018-09-05T00:50:35.016Z,97.20
2018-09-05T00:53:04.027Z,97.20
2018-09-05T00:55:32.932Z,97.20
2018-09-05T00:58:01.823Z,97.20
2018-09-05T01:00:30.742Z,97.20
2018-09-05T01:02:59.826Z,97.20
2018-09-05T01:05:28.620Z,97.20
2018-09-05T01:07:57.516Z,97.20
2018-09-05T01:10:26.317Z,97.20
2018-09-05T01:12:55.160Z,97.20
2018-09-05T01:15:24.054Z,97.40
2018-09-05T01:17:52.860Z,97.40
2018-09-05T01:20:21.681Z,97.40
2018-09-05T01:22:50.500Z,97.40
2018-09-05T01:25:19.308Z,97.50
2018-09-05T01:27:48.167Z,97.60
2018-09-05T01:30:17.027Z,97.60
2018-09-05T01:32:46.316Z,97.50
2018-09-05T01:35:15.131Z,97.60
2018-09-05T01:37:44.021Z,97.80
2018-09-05T01:40:12.856Z,97.90
2018-09-05T01:42:41.733Z,98.10
2018-09-05T01:45:10.576Z,98.00
2018-09-05T01:47:39.419Z,98.00
2018-09-05T01:50:08.260Z,98.00
2018-09-05T01:52:37.088Z,98.20
2018-09-05T01:55:05.983Z,98.20
2018-09-05T01:57:34.851Z,98.20
2018-09-05T02:00:03.796Z,98.10
2018-09-05T02:02:32.669Z,98.00
2018-09-05T02:05:01.573Z,97.90
2018-09-05T02:07:30.436Z,97.90
2018-09-05T02:09:59.241Z,97.80
2018-09-05T02:12:28.040Z,97.70
2018-09-05T02:14:56.972Z,97.70
2018-09-05T02:17:25.836Z,97.70
2018-09-05T02:19:54.764Z,97.70
2018-09-05T02:22:23.566Z,97.90
2018-09-05T02:24:52.430Z,98.10
2018-09-05T02:27:21.265Z,98.20
2018-09-05T02:29:50.173Z,98.30
2018-09-05T02:32:19.000Z,98.40
2018-09-05T02:34:47.866Z,98.40
2018-09-05T02:37:16.676Z,98.50
2018-09-05T02:39:45.589Z,98.60
2018-09-05T02:42:14.409Z,98.60
2018-09-05T02:44:43.252Z,98.70
2018-09-05T02:47:12.065Z,98.70
2018-09-05T02:49:40.926Z,98.80
2018-09-05T02:52:09.727Z,98.70
2018-09-05T02:54:38.634Z,98.70
2018-09-05T02:57:07.393Z,98.60
2018-09-05T02:59:36.345Z,98.60
2018-09-05T03:02:05.124Z,98.60
2018-09-05T03:04:33.995Z,98.70
2018-09-05T03:07:02.839Z,98.70
2018-09-05T03:09:31.796Z,98.70
2018-09-05T03:12:00.591Z,98.80
2018-09-05T03:14:29.460Z,98.80
2018-09-05T03:16:58.250Z,98.80
2018-09-05T03:19:27.121Z,99.00
2018-09-05T03:21:56.025Z,98.80
2018-09-05T03:24:24.975Z,98.80
2018-09-05T03:26:53.801Z,98.90
2018-09-05T03:29:22.681Z,99.00
2018-09-05T03:31:51.760Z,99.00
2018-09-05T03:34:20.600Z,99.00
2018-09-05T03:36:49.461Z,99.10
2018-09-05T03:39:18.347Z,99.10
2018-09-05T03:41:47.157Z,99.10
2018-09-05T03:44:15.997Z,99.10
2018-09-05T03:46:44.836Z,99.20
2018-09-05T03:49:13.711Z,99.40
2018-09-05T03:51:42.553Z,99.20
2018-09-05T03:54:11.406Z,99.20
2018-09-05T03:56:40.251Z,99.10
2018-09-05T03:59:09.070Z,99.50
2018-09-05T04:01:37.892Z,99.20
2018-09-05T04:04:06.700Z,99.20
2018-09-05T04:06:35.517Z,99.10
2018-09-05T04:09:06.117Z,99.20
2018-09-05T04:11:34.973Z,99.20
2018-09-05T04:14:03.877Z,99.50
2018-09-05T04:16:32.721Z,99.40
2018-09-05T04:19:01.646Z,99.40
2018-09-05T04:21:30.477Z,99.50
2018-09-05T04:23:59.279Z,99.40
2018-09-05T04:26:28.183Z,99.50
2018-09-05T04:28:57.077Z,99.40
2018-09-05T04:31:26.000Z,99.70
2018-09-05T04:33:54.831Z,99.50
2018-09-05T04:36:23.755Z,99.60
2018-09-05T04:38:52.636Z,99.60
2018-09-05T04:41:21.462Z,99.70
2018-09-05T04:43:50.288Z,99.70
2018-09-05T04:46:19.117Z,99.70
2018-09-05T04:48:47.945Z,99.70
2018-09-05T04:51:16.787Z,99.70
2018-09-05T04:53:45.538Z,99.70
2018-09-05T04:56:14.403Z,99.70
2018-09-05T04:58:43.199Z,99.80
2018-09-05T05:01:12.097Z,99.80
2018-09-05T05:03:40.916Z,99.70
2018-09-05T05:06:09.897Z,99.80
2018-09-05T05:08:38.752Z,99.90
2018-09-05T05:11:07.595Z,99.80
2018-09-05T05:13:36.439Z,99.80
2018-09-05T05:16:05.594Z,99.80
2018-09-05T05:18:34.435Z,99.80
2018-09-05T05:21:03.298Z,99.80
2018-09-05T05:23:32.141Z,99.80
2018-09-05T05:26:01.040Z,99.80
2018-09-05T05:28:29.894Z,99.90
2018-09-05T05:30:58.838Z,99.90
2018-09-05T05:33:27.681Z,99.80
2018-09-05T05:35:56.520Z,99.80
2018-09-05T05:38:25.456Z,99.80
2018-09-05T05:40:54.411Z,99.90
2018-09-05T05:43:23.213Z,99.90
2018-09-05T05:45:52.147Z,99.80
2018-09-05T05:48:21.057Z,99.70
2018-09-05T05:50:50.705Z,99.60
2018-09-05T05:53:19.586Z,99.60
2018-09-05T05:55:48.491Z,99.40
2018-09-05T05:58:17.374Z,99.40
2018-09-05T06:00:46.302Z,99.20
2018-09-05T06:03:15.106Z,99.10
2018-09-05T06:05:44.058Z,98.90
2018-09-05T06:08:12.935Z,98.80
2018-09-05T06:10:41.932Z,98.60
2018-09-05T06:13:10.804Z,98.50
2018-09-05T06:15:40.086Z,98.50
2018-09-05T06:18:08.873Z,98.40
2018-09-05T06:20:37.917Z,98.20
2018-09-05T06:23:06.800Z,98.20
2018-09-05T06:25:35.746Z,98.20
2018-09-05T06:28:04.722Z,98.20
2018-09-05T06:30:33.727Z,98.00
2018-09-05T06:33:02.564Z,97.90
2018-09-05T06:35:31.472Z,97.80
2018-09-05T06:38:00.449Z,97.50
2018-09-05T06:40:29.355Z,97.30
2018-09-05T06:42:58.338Z,97.20
2018-09-05T06:45:27.245Z,97.20
2018-09-05T06:47:56.099Z,97.10
2018-09-05T06:50:24.940Z,97.00
2018-09-05T06:52:53.886Z,96.70
2018-09-05T06:55:22.928Z,96.70
2018-09-05T06:57:51.981Z,96.60
2018-09-05T07:00:20.995Z,96.30
2018-09-05T07:02:49.935Z,96.00
2018-09-05T07:05:19.543Z,95.60
2018-09-05T07:07:48.534Z,95.50
2018-09-05T07:10:17.413Z,95.40
2018-09-05T07:12:46.331Z,95.10
2018-09-05T07:15:15.214Z,94.90
2018-09-05T07:17:44.175Z,94.90
2018-09-05T07:20:13.010Z,94.90
2018-09-05T07:22:41.894Z,94.90
2018-09-05T07:25:10.810Z,94.80
2018-09-05T07:27:39.680Z,94.50
2018-09-05T07:30:08.664Z,94.40
2018-09-05T07:32:37.620Z,94.30
2018-09-05T07:35:06.456Z,94.30
2018-09-05T07:37:35.425Z,94.20
2018-09-05T07:40:04.401Z,94.10
2018-09-05T07:42:36.286Z,93.90
2018-09-05T07:48:12.074Z,93.10
2018-09-05T07:50:45.009Z,93.20
2018-09-05T07:53:16.547Z,93.00
2018-09-05T07:55:47.959Z,93.00
2018-09-05T08:01:15.550Z,92.70
2018-09-05T08:03:50.075Z,92.70
2018-09-05T08:06:22.045Z,92.40
2018-09-05T08:08:52.918Z,92.20
2018-09-05T08:11:24.626Z,91.70
2018-09-05T08:13:55.572Z,91.60
2018-09-05T08:16:27.307Z,91.50
2018-09-05T08:19:00.309Z,91.40
2018-09-05T08:21:31.810Z,90.90
2018-09-05T08:24:04.273Z,90.40
2018-09-05T08:27:08.540Z,89.70
2018-09-05T08:29:59.777Z,90.00
2018-09-05T08:32:30.943Z,90.00
2018-09-05T08:35:02.418Z,90.40
2018-09-05T08:40:45.658Z,88.40
2018-09-05T08:43:17.489Z,88.00
2018-09-05T08:45:53.813Z,86.80
2018-09-05T08:49:06.738Z,86.10
2018-09-05T08:51:35.802Z,85.30
2018-09-05T08:54:04.865Z,82.40
2018-09-05T08:56:33.989Z,80.90
2018-09-05T08:59:03.019Z,81.70
2018-09-05T09:01:32.197Z,78.50
2018-09-05T09:04:01.399Z,78.60
2018-09-05T09:06:30.507Z,77.00
2018-09-05T09:08:59.574Z,77.10
2018-09-05T09:11:29.033Z,77.50
2018-09-05T09:13:58.099Z,77.00
2018-09-05T09:16:27.018Z,76.80
2018-09-05T09:18:55.984Z,76.10
2018-09-05T09:21:24.894Z,75.40
2018-09-05T09:23:53.966Z,75.10
2018-09-05T09:26:23.228Z,75.30
2018-09-05T09:28:53.048Z,75.40
2018-09-05T09:31:22.566Z,74.20
2018-09-05T09:33:52.049Z,74.00
2018-09-05T09:36:21.359Z,73.60
2018-09-05T09:38:50.383Z,73.30
2018-09-05T09:41:19.709Z,72.00
2018-09-05T09:43:48.802Z,71.40
2018-09-05T09:46:17.834Z,71.30
2018-09-05T09:48:46.934Z,70.70
2018-09-05T09:51:15.932Z,70.90
2018-09-05T09:53:46.024Z,70.10
2018-09-05T09:56:15.288Z,70.20
2018-09-05T09:58:44.301Z,71.20
2018-09-05T10:01:18.796Z,69.70
2018-09-05T10:03:52.909Z,71.20
2018-09-05T10:06:26.061Z,69.00
2018-09-05T10:09:00.676Z,68.00
2018-09-05T10:11:34.700Z,66.40
2018-09-05T10:14:09.195Z,65.10
2018-09-05T10:16:41.085Z,65.40
2018-09-05T10:19:11.687Z,65.30
2018-09-05T10:21:40.700Z,65.00
2018-09-05T10:24:09.755Z,64.60
2018-09-05T10:26:38.671Z,65.20
2018-09-05T10:29:07.855Z,64.80
2018-09-05T10:31:36.923Z,64.70
2018-09-05T10:34:06.807Z,63.90
2018-09-05T10:36:35.770Z,63.90
2018-09-05T10:39:06.930Z,63.70
2018-09-05T10:41:36.086Z,63.60
2018-09-05T10:44:04.992Z,59.70
2018-09-05T10:46:34.080Z,59.60
2018-09-05T10:49:03.015Z,59.50
2018-09-05T10:51:37.257Z,59.40
2018-09-05T10:54:06.751Z,59.50
2018-09-05T10:56:35.992Z,59.00
2018-09-05T10:59:05.173Z,58.80
2018-09-05T11:01:34.645Z,58.00
2018-09-05T11:04:04.039Z,58.10
2018-09-05T11:06:33.136Z,57.40
2018-09-05T11:09:02.344Z,55.60
2018-09-05T11:11:31.760Z,53.80
2018-09-05T11:14:00.788Z,53.30
2018-09-05T11:16:30.550Z,55.30
2018-09-05T11:19:05.869Z,55.20
2018-09-05T11:21:34.955Z,54.80
2018-09-05T11:24:03.959Z,54.00
2018-09-05T11:26:33.090Z,53.90
2018-09-05T11:29:02.249Z,53.00
2018-09-05T11:31:31.633Z,52.50
2018-09-05T11:34:00.595Z,52.10
2018-09-05T11:36:30.137Z,52.40
2018-09-05T11:38:59.173Z,52.60
2018-09-05T11:41:28.267Z,53.10
2018-09-05T11:43:57.329Z,53.00
2018-09-05T11:46:26.542Z,52.00
2018-09-05T11:48:55.520Z,50.80
2018-09-05T11:51:24.778Z,50.60
2018-09-05T11:53:53.958Z,50.20
2018-09-05T11:56:23.125Z,51.10
2018-09-05T11:58:52.289Z,51.60
2018-09-05T12:01:21.482Z,51.10
2018-09-05T12:03:50.859Z,50.20
2018-09-05T12:06:20.119Z,49.00
2018-09-05T12:08:49.092Z,48.40
2018-09-05T12:11:18.215Z,47.60
2018-09-05T12:13:47.066Z,47.20
2018-09-05T12:16:16.535Z,46.30
2018-09-05T12:18:45.747Z,45.30
2018-09-05T12:21:14.892Z,44.80
2018-09-05T12:23:43.971Z,45.20
2018-09-05T12:26:13.420Z,44.80
2018-09-05T12:28:43.057Z,44.10
2018-09-05T12:31:12.349Z,44.00
2018-09-05T12:33:41.371Z,44.60
2018-09-05T12:36:10.795Z,45.40
2018-09-05T12:38:39.790Z,44.80
2018-09-05T12:41:08.793Z,44.40
2018-09-05T12:43:37.786Z,44.40
2018-09-05T12:46:07.002Z,44.50
2018-09-05T12:48:36.318Z,44.80
2018-09-05T12:51:05.409Z,45.40
2018-09-05T12:53:34.446Z,46.00
2018-09-05T12:56:03.410Z,46.30
2018-09-05T12:58:32.649Z,46.70
2018-09-05T13:01:01.815Z,47.10
2018-09-05T13:03:31.017Z,47.40
2018-09-05T13:05:59.894Z,47.50
2018-09-05T13:08:28.961Z,48.00
2018-09-05T13:10:57.989Z,48.10
2018-09-05T13:13:27.003Z,47.70
2018-09-05T13:15:56.078Z,47.50
2018-09-05T13:18:25.248Z,47.10
2018-09-05T13:20:54.295Z,47.00
2018-09-05T13:23:23.467Z,47.00
2018-09-05T13:25:52.520Z,46.60
2018-09-05T13:28:21.710Z,45.30
2018-09-05T13:30:50.616Z,43.80
2018-09-05T13:33:20.068Z,42.70
2018-09-05T13:35:49.217Z,41.10
2018-09-05T13:38:18.406Z,40.60
2018-09-05T13:40:47.325Z,40.30
2018-09-05T13:43:21.196Z,41.50
2018-09-05T13:45:54.010Z,42.10
2018-09-05T13:48:23.123Z,41.00
2018-09-05T13:50:52.097Z,40.60
2018-09-05T13:53:21.196Z,39.40
2018-09-05T13:55:50.394Z,38.60
2018-09-05T13:58:19.607Z,38.60
2018-09-05T14:00:48.623Z,39.70
2018-09-05T14:03:20.520Z,40.60
2018-09-05T14:05:49.509Z,41.80
2018-09-05T14:08:20.788Z,42.50
2018-09-05T14:10:52.404Z,43.20
2018-09-05T14:13:21.378Z,42.50
2018-09-05T14:15:56.995Z,41.50
2018-09-05T14:18:27.965Z,39.70
2018-09-05T14:20:59.064Z,38.40
2018-09-05T14:23:28.157Z,38.10
2018-09-05T14:25:57.123Z,37.50
2018-09-05T14:28:26.210Z,36.80
2018-09-05T14:30:55.528Z,35.90
2018-09-05T14:33:24.480Z,35.40
2018-09-05T14:35:53.813Z,35.10
2018-09-05T14:38:22.781Z,35.00
2018-09-05T14:40:51.892Z,35.30
2018-09-05T14:43:20.862Z,34.60
2018-09-05T14:45:49.897Z,34.50
2018-09-05T14:48:24.130Z,34.30
2018-09-05T14:50:54.489Z,34.80
2018-09-05T14:53:25.487Z,35.50
2018-09-05T14:55:58.266Z,35.50
2018-09-05T14:58:29.596Z,36.10
2018-09-05T15:01:05.380Z,36.80
2018-09-05T15:06:13.029Z,37.60
2018-09-05T15:08:42.426Z,38.30
2018-09-05T15:11:11.419Z,39.00
2018-09-05T15:13:42.574Z,39.40
2018-09-05T15:16:11.708Z,39.80
2018-09-05T15:18:40.691Z,40.20
2018-09-05T15:21:09.769Z,40.80
2018-09-05T15:23:38.660Z,41.20
2018-09-05T15:26:07.979Z,41.60
2018-09-05T15:28:37.321Z,41.90
2018-09-05T15:31:06.566Z,41.20
2018-09-05T15:33:35.500Z,40.10
2018-09-05T15:36:04.825Z,38.90
2018-09-05T15:38:34.047Z,37.50
2018-09-05T15:41:03.152Z,36.60
2018-09-05T15:43:32.315Z,36.30
2018-09-05T15:46:01.390Z,35.70
2018-09-05T15:48:30.228Z,35.20
2018-09-05T15:50:59.388Z,34.70
2018-09-05T15:53:28.499Z,35.20
2018-09-05T15:55:57.412Z,35.00
2018-09-05T15:58:26.462Z,35.40
2018-09-05T16:00:55.348Z,35.90
2018-09-05T16:03:25.132Z,36.90
2018-09-05T16:05:54.092Z,37.50
2018-09-05T16:08:23.032Z,38.40
2018-09-05T16:10:52.021Z,38.90
2018-09-05T16:13:20.971Z,38.70
2018-09-05T16:15:49.842Z,39.60
2018-09-05T16:18:18.833Z,40.20
2018-09-05T16:20:47.958Z,40.80
2018-09-05T16:23:17.014Z,41.20
2018-09-05T16:25:45.853Z,42.00
2018-09-05T16:28:14.771Z,43.20
2018-09-05T16:30:43.960Z,44.20
2018-09-05T16:33:13.156Z,44.80
2018-09-05T16:35:42.063Z,45.30
2018-09-05T16:38:10.976Z,46.10
2018-09-05T16:40:39.848Z,46.70
2018-09-05T16:43:09.293Z,47.20
2018-09-05T16:45:38.318Z,47.60
2018-09-05T16:48:07.610Z,48.00
2018-09-05T16:50:36.493Z,48.40
2018-09-05T16:53:05.693Z,48.80
2018-09-05T16:55:34.641Z,49.20
2018-09-05T16:58:04.419Z,49.50
2018-09-05T17:00:33.388Z,49.20
2018-09-05T17:03:02.312Z,50.20
2018-09-05T17:05:31.199Z,50.90
2018-09-05T17:08:00.100Z,51.40
2018-09-05T17:10:29.268Z,51.90
2018-09-05T17:12:58.441Z,52.40
2018-09-05T17:15:27.309Z,52.80
2018-09-05T17:17:56.171Z,52.40
2018-09-05T17:20:24.986Z,52.90
2018-09-05T17:22:54.069Z,53.60
2018-09-05T17:25:22.991Z,54.30
2018-09-05T17:27:52.083Z,54.80
2018-09-05T17:30:23.001Z,55.20
2018-09-05T17:32:52.172Z,55.60
2018-09-05T17:35:21.259Z,56.30
2018-09-05T17:37:50.216Z,56.90
2018-09-05T17:40:19.510Z,57.70
2018-09-05T17:42:48.370Z,58.40
2018-09-05T17:45:17.249Z,58.80
2018-09-05T17:47:46.055Z,59.40
2018-09-05T17:50:15.141Z,60.60
2018-09-05T17:52:44.162Z,60.90
2018-09-05T17:55:13.088Z,61.50
2018-09-05T17:57:41.945Z,61.80
2018-09-05T18:00:10.914Z,62.00
2018-09-05T18:02:39.847Z,61.50
2018-09-05T18:05:08.783Z,61.10
2018-09-05T18:07:38.744Z,60.90
2018-09-05T18:10:07.589Z,60.40
2018-09-05T18:12:36.572Z,61.10
2018-09-05T18:15:05.895Z,61.40
2018-09-05T18:17:34.789Z,61.90
2018-09-05T18:20:03.660Z,62.80
2018-09-05T18:22:32.414Z,63.10
2018-09-05T18:25:01.312Z,62.50
2018-09-05T18:27:30.263Z,62.80
2018-09-05T18:29:59.120Z,63.50
2018-09-05T18:32:28.109Z,64.80
2018-09-05T18:34:56.995Z,65.90
2018-09-05T18:37:25.897Z,66.40
2018-09-05T18:39:54.998Z,66.90
2018-09-05T18:42:24.052Z,67.40
2018-09-05T18:44:53.173Z,67.60
2018-09-05T18:47:22.385Z,67.90
2018-09-05T18:49:52.365Z,68.30
2018-09-05T18:52:21.244Z,68.50
2018-09-05T18:54:50.437Z,69.10
2018-09-05T18:57:19.441Z,68.90
2018-09-05T18:59:48.319Z,69.40
2018-09-05T19:02:17.241Z,69.50
2018-09-05T19:04:46.180Z,69.50
2018-09-05T19:07:15.044Z,69.80
2018-09-05T19:09:44.083Z,70.20
2018-09-05T19:12:12.939Z,70.60
2018-09-05T19:14:42.071Z,70.90
2018-09-05T19:17:11.072Z,71.20
2018-09-05T19:19:39.971Z,71.30
2018-09-05T19:22:08.906Z,71.70
2018-09-05T19:24:37.758Z,72.10
2018-09-05T19:27:06.673Z,72.10
2018-09-05T19:29:35.512Z,72.40
2018-09-05T19:32:04.534Z,72.70
2018-09-05T19:34:33.396Z,73.80
2018-09-05T19:37:02.547Z,73.50
2018-09-05T19:39:31.578Z,73.60
2018-09-05T19:42:00.741Z,74.00
2018-09-05T19:44:29.740Z,74.40
2018-09-05T19:46:58.595Z,74.60
2018-09-05T19:49:27.415Z,75.00
2018-09-05T19:51:56.289Z,76.60
2018-09-05T19:54:25.547Z,77.30
2018-09-05T19:56:54.681Z,78.10
2018-09-05T19:59:23.611Z,78.40
2018-09-05T20:01:52.409Z,79.00
2018-09-05T20:04:21.236Z,76.90
2018-09-05T20:06:50.180Z,75.60
2018-09-05T20:09:19.077Z,75.10
2018-09-05T20:11:47.986Z,74.70
2018-09-05T20:14:16.814Z,75.60
2018-09-05T20:16:46.576Z,75.80
2018-09-05T20:19:15.671Z,76.50
2018-09-05T20:21:44.538Z,76.40
2018-09-05T20:24:13.325Z,77.10
2018-09-05T20:26:42.200Z,77.70
2018-09-05T20:29:11.198Z,78.60
2018-09-05T20:31:40.532Z,80.10
2018-09-05T20:34:09.388Z,80.30
2018-09-05T20:36:38.190Z,80.80
2018-09-05T20:39:09.255Z,81.70
2018-09-05T20:41:38.149Z,82.20
2018-09-05T20:44:07.018Z,82.70
2018-09-05T20:46:35.901Z,82.70
2018-09-05T20:49:04.716Z,82.90
2018-09-05T20:51:33.658Z,82.70
2018-09-05T20:54:02.492Z,82.80
2018-09-05T20:56:31.349Z,82.20
2018-09-05T20:59:00.321Z,82.70
2018-09-05T21:01:29.298Z,82.50
2018-09-05T21:03:58.358Z,82.90
2018-09-05T21:06:27.304Z,83.50
2018-09-05T21:08:56.125Z,83.90
2018-09-05T21:11:25.033Z,84.80
2018-09-05T21:13:53.879Z,85.40
2018-09-05T21:16:22.896Z,86.00
2018-09-05T21:18:51.733Z,86.70
2018-09-05T21:21:20.633Z,87.10
2018-09-05T21:23:49.481Z,87.80
2018-09-05T21:26:18.335Z,88.30
2018-09-05T21:28:47.192Z,89.00
2018-09-05T21:31:16.071Z,89.60
2018-09-05T21:33:44.936Z,90.00
2018-09-05T21:36:13.825Z,90.40
2018-09-05T21:38:42.685Z,90.10
2018-09-05T21:41:11.682Z,90.00
2018-09-05T21:43:40.551Z,89.90
2018-09-05T21:46:09.460Z,90.00
2018-09-05T21:48:38.448Z,89.90
2018-09-05T21:51:07.392Z,89.70
2018-09-05T21:53:36.293Z,90.00
2018-09-05T21:56:05.361Z,89.00
2018-09-05T21:58:34.237Z,89.20
2018-09-05T22:01:03.108Z,89.10
2018-09-05T22:03:31.973Z,88.70
2018-09-05T22:06:01.036Z,88.30
2018-09-05T22:08:30.010Z,88.40
2018-09-05T22:11:03.173Z,88.30
2018-09-05T22:13:32.311Z,88.00
2018-09-05T22:16:01.281Z,88.20
2018-09-05T22:18:30.178Z,88.30
2018-09-05T22:20:59.037Z,88.40
2018-09-05T22:23:27.918Z,88.80
2018-09-05T22:25:56.738Z,89.10
2018-09-05T22:28:25.578Z,89.40
2018-09-05T22:30:54.440Z,89.50
2018-09-05T22:33:23.311Z,90.00
2018-09-05T22:35:52.109Z,90.30
2018-09-05T22:38:20.968Z,90.10
2018-09-05T22:40:52.860Z,90.20
2018-09-05T22:43:33.477Z,90.40
2018-09-05T22:46:13.488Z,90.40
2018-09-05T22:48:53.413Z,90.50
2018-09-05T22:54:12.096Z,90.60
2018-09-05T22:56:58.229Z,90.70
2018-09-05T23:02:10.267Z,90.80
2018-09-05T23:04:52.214Z,90.90
2018-09-05T23:08:37.155Z,90.80
2018-09-05T23:11:17.271Z,90.80
2018-09-05T23:15:05.510Z,91.00
2018-09-05T23:18:45.558Z,91.10
2018-09-05T23:21:18.827Z,91.40
2018-09-05T23:23:57.691Z,91.70
2018-09-05T23:26:26.953Z,91.90
2018-09-05T23:28:55.803Z,92.10
2018-09-05T23:31:24.972Z,92.10
2018-09-05T23:33:53.887Z,92.20
2018-09-05T23:36:23.010Z,92.40
2018-09-05T23:38:51.857Z,92.40
2018-09-05T23:41:20.687Z,92.40
2018-09-05T23:43:49.568Z,92.50
2018-09-05T23:46:18.407Z,92.50
2018-09-05T23:48:47.291Z,92.60
2018-09-05T23:51:16.108Z,92.70
2018-09-05T23:53:44.987Z,92.60
2018-09-05T23:56:13.820Z,92.70
2018-09-05T23:58:42.662Z,92.80
